sensor_id;sensor_type;location;lat;lon;timestamp;P1;durP1;ratioP1;P2;durP2;ratioP2
69789;SDS011;57064;52.046;4.800;2023-08-24T00:00:55;11.73;;;6.72;;
69789;SDS011;57064;52.046;4.800;2023-08-24T00:03:21;13.20;;;6.68;;
69789;SDS011;57064;52.046;4.800;2023-08-24T00:05:47;12.40;;;6.53;;
69789;SDS011;57064;52.046;4.800;2023-08-24T00:08:14;12.82;;;7.28;;
69789;SDS011;57064;52.046;4.800;2023-08-24T00:10:42;12.38;;;6.28;;
69789;SDS011;57064;52.046;4.800;2023-08-24T00:13:11;12.20;;;6.90;;
69789;SDS011;57064;52.046;4.800;2023-08-24T00:15:38;10.60;;;7.03;;
69789;SDS011;57064;52.046;4.800;2023-08-24T00:18:05;12.95;;;6.93;;
69789;SDS011;57064;52.046;4.800;2023-08-24T00:20:31;14.77;;;7.07;;
69789;SDS011;57064;52.046;4.800;2023-08-24T00:22:58;12.98;;;6.93;;
69789;SDS011;57064;52.046;4.800;2023-08-24T00:25:25;10.10;;;6.50;;
69789;SDS011;57064;52.046;4.800;2023-08-24T00:27:54;12.93;;;6.95;;
69789;SDS011;57064;52.046;4.800;2023-08-24T00:30:20;11.73;;;6.55;;
69789;SDS011;57064;52.046;4.800;2023-08-24T00:32:47;9.40;;;6.15;;
69789;SDS011;57064;52.046;4.800;2023-08-24T00:35:13;10.65;;;6.25;;
69789;SDS011;57064;52.046;4.800;2023-08-24T00:37:39;11.75;;;7.05;;
69789;SDS011;57064;52.046;4.800;2023-08-24T00:40:06;10.13;;;6.30;;
69789;SDS011;57064;52.046;4.800;2023-08-24T00:42:40;15.07;;;7.13;;
69789;SDS011;57064;52.046;4.800;2023-08-24T00:45:08;11.18;;;6.93;;
69789;SDS011;57064;52.046;4.800;2023-08-24T00:47:39;12.55;;;6.47;;
69789;SDS011;57064;52.046;4.800;2023-08-24T00:50:06;13.00;;;6.32;;
69789;SDS011;57064;52.046;4.800;2023-08-24T00:52:33;11.07;;;6.70;;
69789;SDS011;57064;52.046;4.800;2023-08-24T00:55:01;11.38;;;6.55;;
69789;SDS011;57064;52.046;4.800;2023-08-24T00:57:27;13.48;;;6.53;;
69789;SDS011;57064;52.046;4.800;2023-08-24T00:59:56;12.98;;;6.38;;
69789;SDS011;57064;52.046;4.800;2023-08-24T01:02:25;12.15;;;6.82;;
69789;SDS011;57064;52.046;4.800;2023-08-24T01:04:51;11.88;;;7.03;;
69789;SDS011;57064;52.046;4.800;2023-08-24T01:07:18;12.05;;;6.93;;
69789;SDS011;57064;52.046;4.800;2023-08-24T01:09:44;11.18;;;6.35;;
69789;SDS011;57064;52.046;4.800;2023-08-24T01:12:25;13.07;;;6.57;;
69789;SDS011;57064;52.046;4.800;2023-08-24T01:17:37;13.15;;;6.80;;
69789;SDS011;57064;52.046;4.800;2023-08-24T01:20:07;11.40;;;7.22;;
69789;SDS011;57064;52.046;4.800;2023-08-24T01:22:41;13.10;;;6.88;;
69789;SDS011;57064;52.046;4.800;2023-08-24T01:28:06;9.70;;;6.55;;
69789;SDS011;57064;52.046;4.800;2023-08-24T01:30:34;11.00;;;6.78;;
69789;SDS011;57064;52.046;4.800;2023-08-24T01:33:03;13.55;;;6.65;;
69789;SDS011;57064;52.046;4.800;2023-08-24T01:35:30;13.48;;;7.03;;
69789;SDS011;57064;52.046;4.800;2023-08-24T01:37:59;20.67;;;7.35;;
69789;SDS011;57064;52.046;4.800;2023-08-24T01:40:48;12.07;;;7.10;;
69789;SDS011;57064;52.046;4.800;2023-08-24T01:43:25;12.27;;;6.70;;
69789;SDS011;57064;52.046;4.800;2023-08-24T01:45:55;13.10;;;6.63;;
69789;SDS011;57064;52.046;4.800;2023-08-24T01:48:22;10.88;;;6.90;;
69789;SDS011;57064;52.046;4.800;2023-08-24T01:50:50;11.02;;;6.90;;
69789;SDS011;57064;52.046;4.800;2023-08-24T01:53:17;9.95;;;7.10;;
69789;SDS011;57064;52.046;4.800;2023-08-24T01:55:45;10.13;;;6.80;;
69789;SDS011;57064;52.046;4.800;2023-08-24T01:58:11;15.93;;;7.93;;
69789;SDS011;57064;52.046;4.800;2023-08-24T02:00:37;13.13;;;7.20;;
69789;SDS011;57064;52.046;4.800;2023-08-24T02:03:03;12.15;;;8.43;;
69789;SDS011;57064;52.046;4.800;2023-08-24T02:05:30;12.32;;;8.32;;
69789;SDS011;57064;52.046;4.800;2023-08-24T02:07:56;16.05;;;7.78;;
69789;SDS011;57064;52.046;4.800;2023-08-24T02:10:22;14.23;;;7.88;;
69789;SDS011;57064;52.046;4.800;2023-08-24T02:12:48;13.18;;;8.50;;
69789;SDS011;57064;52.046;4.800;2023-08-24T02:15:14;15.20;;;9.25;;
69789;SDS011;57064;52.046;4.800;2023-08-24T02:17:40;17.63;;;9.60;;
69789;SDS011;57064;52.046;4.800;2023-08-24T02:20:07;17.45;;;8.90;;
69789;SDS011;57064;52.046;4.800;2023-08-24T02:22:36;19.08;;;9.50;;
69789;SDS011;57064;52.046;4.800;2023-08-24T02:25:03;17.63;;;9.52;;
69789;SDS011;57064;52.046;4.800;2023-08-24T02:27:30;12.07;;;7.72;;
69789;SDS011;57064;52.046;4.800;2023-08-24T02:29:57;15.25;;;8.80;;
69789;SDS011;57064;52.046;4.800;2023-08-24T02:32:23;13.13;;;8.65;;
69789;SDS011;57064;52.046;4.800;2023-08-24T02:34:49;18.02;;;9.40;;
69789;SDS011;57064;52.046;4.800;2023-08-24T02:37:15;16.38;;;9.23;;
69789;SDS011;57064;52.046;4.800;2023-08-24T02:39:41;15.57;;;8.63;;
69789;SDS011;57064;52.046;4.800;2023-08-24T02:42:07;21.42;;;10.23;;
69789;SDS011;57064;52.046;4.800;2023-08-24T02:44:33;16.30;;;9.40;;
69789;SDS011;57064;52.046;4.800;2023-08-24T02:47:00;19.25;;;10.30;;
69789;SDS011;57064;52.046;4.800;2023-08-24T02:49:26;16.08;;;9.75;;
69789;SDS011;57064;52.046;4.800;2023-08-24T02:51:52;17.95;;;9.88;;
69789;SDS011;57064;52.046;4.800;2023-08-24T02:54:18;17.27;;;10.18;;
69789;SDS011;57064;52.046;4.800;2023-08-24T02:56:44;17.13;;;10.07;;
69789;SDS011;57064;52.046;4.800;2023-08-24T02:59:10;18.73;;;10.65;;
69789;SDS011;57064;52.046;4.800;2023-08-24T03:01:36;18.15;;;10.43;;
69789;SDS011;57064;52.046;4.800;2023-08-24T03:04:03;21.23;;;10.50;;
69789;SDS011;57064;52.046;4.800;2023-08-24T03:06:30;18.27;;;10.00;;
69789;SDS011;57064;52.046;4.800;2023-08-24T03:08:56;19.05;;;11.00;;
69789;SDS011;57064;52.046;4.800;2023-08-24T03:11:22;19.52;;;10.00;;
69789;SDS011;57064;52.046;4.800;2023-08-24T03:13:49;21.00;;;11.25;;
69789;SDS011;57064;52.046;4.800;2023-08-24T03:16:15;23.55;;;11.88;;
69789;SDS011;57064;52.046;4.800;2023-08-24T03:18:41;24.77;;;12.18;;
69789;SDS011;57064;52.046;4.800;2023-08-24T03:21:07;21.23;;;11.30;;
69789;SDS011;57064;52.046;4.800;2023-08-24T03:23:33;22.52;;;11.57;;
69789;SDS011;57064;52.046;4.800;2023-08-24T03:25:59;21.95;;;12.43;;
69789;SDS011;57064;52.046;4.800;2023-08-24T03:28:25;22.08;;;11.70;;
69789;SDS011;57064;52.046;4.800;2023-08-24T03:30:51;23.30;;;11.05;;
69789;SDS011;57064;52.046;4.800;2023-08-24T03:33:20;22.48;;;11.27;;
69789;SDS011;57064;52.046;4.800;2023-08-24T03:35:46;21.23;;;11.93;;
69789;SDS011;57064;52.046;4.800;2023-08-24T03:38:13;18.83;;;10.93;;
69789;SDS011;57064;52.046;4.800;2023-08-24T03:40:39;22.98;;;11.65;;
69789;SDS011;57064;52.046;4.800;2023-08-24T03:43:05;21.00;;;11.60;;
69789;SDS011;57064;52.046;4.800;2023-08-24T03:45:31;22.50;;;10.52;;
69789;SDS011;57064;52.046;4.800;2023-08-24T03:47:57;18.70;;;10.55;;
69789;SDS011;57064;52.046;4.800;2023-08-24T03:50:23;20.67;;;10.88;;
69789;SDS011;57064;52.046;4.800;2023-08-24T03:52:51;21.20;;;11.57;;
69789;SDS011;57064;52.046;4.800;2023-08-24T03:55:19;20.48;;;11.40;;
69789;SDS011;57064;52.046;4.800;2023-08-24T03:57:45;22.15;;;11.90;;
69789;SDS011;57064;52.046;4.800;2023-08-24T04:00:12;24.83;;;12.98;;
69789;SDS011;57064;52.046;4.800;2023-08-24T04:02:39;22.10;;;11.73;;
69789;SDS011;57064;52.046;4.800;2023-08-24T04:05:09;22.27;;;11.73;;
69789;SDS011;57064;52.046;4.800;2023-08-24T04:07:35;26.45;;;12.95;;
69789;SDS011;57064;52.046;4.800;2023-08-24T04:10:03;27.77;;;12.55;;
69789;SDS011;57064;52.046;4.800;2023-08-24T04:12:32;25.17;;;12.98;;
69789;SDS011;57064;52.046;4.800;2023-08-24T04:14:59;22.35;;;11.88;;
69789;SDS011;57064;52.046;4.800;2023-08-24T04:17:25;26.90;;;14.30;;
69789;SDS011;57064;52.046;4.800;2023-08-24T04:19:51;30.05;;;13.95;;
69789;SDS011;57064;52.046;4.800;2023-08-24T04:22:17;28.02;;;13.68;;
69789;SDS011;57064;52.046;4.800;2023-08-24T04:24:43;30.77;;;15.35;;
69789;SDS011;57064;52.046;4.800;2023-08-24T04:27:09;31.35;;;14.57;;
69789;SDS011;57064;52.046;4.800;2023-08-24T04:29:36;32.70;;;15.05;;
69789;SDS011;57064;52.046;4.800;2023-08-24T04:32:02;31.38;;;16.50;;
69789;SDS011;57064;52.046;4.800;2023-08-24T04:34:29;37.17;;;16.27;;
69789;SDS011;57064;52.046;4.800;2023-08-24T04:36:55;40.47;;;17.73;;
69789;SDS011;57064;52.046;4.800;2023-08-24T04:39:21;32.33;;;16.27;;
69789;SDS011;57064;52.046;4.800;2023-08-24T04:41:47;34.78;;;18.00;;
69789;SDS011;57064;52.046;4.800;2023-08-24T04:44:13;37.28;;;17.35;;
69789;SDS011;57064;52.046;4.800;2023-08-24T04:46:39;38.28;;;18.92;;
69789;SDS011;57064;52.046;4.800;2023-08-24T04:49:05;32.78;;;17.02;;
69789;SDS011;57064;52.046;4.800;2023-08-24T04:51:32;32.53;;;17.10;;
69789;SDS011;57064;52.046;4.800;2023-08-24T04:53:58;32.80;;;17.75;;
69789;SDS011;57064;52.046;4.800;2023-08-24T04:56:24;37.05;;;17.70;;
69789;SDS011;57064;52.046;4.800;2023-08-24T04:58:53;33.17;;;16.60;;
69789;SDS011;57064;52.046;4.800;2023-08-24T05:01:23;35.15;;;17.23;;
69789;SDS011;57064;52.046;4.800;2023-08-24T05:03:52;32.10;;;16.20;;
69789;SDS011;57064;52.046;4.800;2023-08-24T05:06:19;32.17;;;16.70;;
69789;SDS011;57064;52.046;4.800;2023-08-24T05:08:46;30.05;;;16.45;;
69789;SDS011;57064;52.046;4.800;2023-08-24T05:11:12;35.28;;;16.48;;
69789;SDS011;57064;52.046;4.800;2023-08-24T05:13:42;33.13;;;16.52;;
69789;SDS011;57064;52.046;4.800;2023-08-24T05:16:12;32.75;;;16.48;;
69789;SDS011;57064;52.046;4.800;2023-08-24T05:18:39;30.33;;;14.85;;
69789;SDS011;57064;52.046;4.800;2023-08-24T05:21:05;33.55;;;15.65;;
69789;SDS011;57064;52.046;4.800;2023-08-24T05:23:32;29.33;;;15.70;;
69789;SDS011;57064;52.046;4.800;2023-08-24T05:25:59;34.20;;;16.35;;
69789;SDS011;57064;52.046;4.800;2023-08-24T05:28:27;31.33;;;15.65;;
69789;SDS011;57064;52.046;4.800;2023-08-24T05:30:54;31.05;;;15.95;;
69789;SDS011;57064;52.046;4.800;2023-08-24T05:33:21;32.70;;;16.67;;
69789;SDS011;57064;52.046;4.800;2023-08-24T05:35:48;30.40;;;15.73;;
69789;SDS011;57064;52.046;4.800;2023-08-24T05:38:15;28.17;;;15.55;;
69789;SDS011;57064;52.046;4.800;2023-08-24T05:40:42;29.30;;;14.82;;
69789;SDS011;57064;52.046;4.800;2023-08-24T05:43:09;28.77;;;14.77;;
69789;SDS011;57064;52.046;4.800;2023-08-24T05:45:35;22.63;;;14.30;;
69789;SDS011;57064;52.046;4.800;2023-08-24T05:48:02;29.27;;;14.93;;
69789;SDS011;57064;52.046;4.800;2023-08-24T05:50:28;27.73;;;14.82;;
69789;SDS011;57064;52.046;4.800;2023-08-24T05:52:54;25.88;;;14.35;;
69789;SDS011;57064;52.046;4.800;2023-08-24T05:55:20;24.67;;;13.25;;
69789;SDS011;57064;52.046;4.800;2023-08-24T05:57:46;21.40;;;12.65;;
69789;SDS011;57064;52.046;4.800;2023-08-24T06:00:13;23.00;;;13.95;;
69789;SDS011;57064;52.046;4.800;2023-08-24T06:02:39;25.58;;;13.82;;
69789;SDS011;57064;52.046;4.800;2023-08-24T06:05:06;23.75;;;13.82;;
69789;SDS011;57064;52.046;4.800;2023-08-24T06:07:33;24.92;;;12.38;;
69789;SDS011;57064;52.046;4.800;2023-08-24T06:09:59;22.75;;;12.70;;
69789;SDS011;57064;52.046;4.800;2023-08-24T06:12:26;22.95;;;11.90;;
69789;SDS011;57064;52.046;4.800;2023-08-24T06:14:52;21.88;;;12.63;;
69789;SDS011;57064;52.046;4.800;2023-08-24T06:17:18;20.70;;;12.30;;
69789;SDS011;57064;52.046;4.800;2023-08-24T06:19:44;23.65;;;12.43;;
69789;SDS011;57064;52.046;4.800;2023-08-24T06:22:10;21.70;;;13.15;;
69789;SDS011;57064;52.046;4.800;2023-08-24T06:24:36;19.98;;;12.57;;
69789;SDS011;57064;52.046;4.800;2023-08-24T06:27:02;22.02;;;12.82;;
69789;SDS011;57064;52.046;4.800;2023-08-24T06:29:28;22.35;;;12.88;;
69789;SDS011;57064;52.046;4.800;2023-08-24T06:31:55;26.30;;;12.95;;
69789;SDS011;57064;52.046;4.800;2023-08-24T06:34:21;18.13;;;11.95;;
69789;SDS011;57064;52.046;4.800;2023-08-24T06:36:50;23.10;;;12.68;;
69789;SDS011;57064;52.046;4.800;2023-08-24T06:39:18;19.63;;;12.68;;
69789;SDS011;57064;52.046;4.800;2023-08-24T06:41:44;22.75;;;14.25;;
69789;SDS011;57064;52.046;4.800;2023-08-24T06:44:10;19.48;;;12.77;;
69789;SDS011;57064;52.046;4.800;2023-08-24T06:46:36;20.27;;;13.23;;
69789;SDS011;57064;52.046;4.800;2023-08-24T06:49:02;17.55;;;12.07;;
69789;SDS011;57064;52.046;4.800;2023-08-24T06:51:29;22.17;;;13.63;;
69789;SDS011;57064;52.046;4.800;2023-08-24T06:53:55;22.10;;;12.80;;
69789;SDS011;57064;52.046;4.800;2023-08-24T06:56:21;19.55;;;13.23;;
69789;SDS011;57064;52.046;4.800;2023-08-24T06:58:47;22.30;;;12.85;;
69789;SDS011;57064;52.046;4.800;2023-08-24T07:01:13;20.48;;;13.75;;
69789;SDS011;57064;52.046;4.800;2023-08-24T07:03:39;20.65;;;13.02;;
69789;SDS011;57064;52.046;4.800;2023-08-24T07:06:06;23.85;;;14.50;;
69789;SDS011;57064;52.046;4.800;2023-08-24T07:08:33;21.52;;;13.27;;
69789;SDS011;57064;52.046;4.800;2023-08-24T07:10:59;17.63;;;13.02;;
69789;SDS011;57064;52.046;4.800;2023-08-24T07:13:27;22.60;;;13.52;;
69789;SDS011;57064;52.046;4.800;2023-08-24T07:15:53;20.17;;;13.48;;
69789;SDS011;57064;52.046;4.800;2023-08-24T07:18:20;20.02;;;14.05;;
69789;SDS011;57064;52.046;4.800;2023-08-24T07:20:46;19.73;;;12.80;;
69789;SDS011;57064;52.046;4.800;2023-08-24T07:23:12;19.23;;;13.35;;
69789;SDS011;57064;52.046;4.800;2023-08-24T07:25:38;22.80;;;12.85;;
69789;SDS011;57064;52.046;4.800;2023-08-24T07:28:06;20.67;;;12.95;;
69789;SDS011;57064;52.046;4.800;2023-08-24T07:30:33;22.15;;;12.77;;
69789;SDS011;57064;52.046;4.800;2023-08-24T07:33:01;18.52;;;12.52;;
69789;SDS011;57064;52.046;4.800;2023-08-24T07:35:30;19.10;;;11.88;;
69789;SDS011;57064;52.046;4.800;2023-08-24T07:37:57;17.63;;;11.95;;
69789;SDS011;57064;52.046;4.800;2023-08-24T07:40:23;21.10;;;12.60;;
69789;SDS011;57064;52.046;4.800;2023-08-24T07:42:50;18.25;;;12.10;;
69789;SDS011;57064;52.046;4.800;2023-08-24T07:45:23;17.70;;;12.27;;
69789;SDS011;57064;52.046;4.800;2023-08-24T07:47:49;20.65;;;11.38;;
69789;SDS011;57064;52.046;4.800;2023-08-24T07:50:16;19.98;;;11.93;;
69789;SDS011;57064;52.046;4.800;2023-08-24T07:52:42;16.27;;;10.98;;
69789;SDS011;57064;52.046;4.800;2023-08-24T07:55:08;19.95;;;11.75;;
69789;SDS011;57064;52.046;4.800;2023-08-24T07:57:35;15.43;;;10.82;;
69789;SDS011;57064;52.046;4.800;2023-08-24T08:00:02;16.08;;;10.32;;
69789;SDS011;57064;52.046;4.800;2023-08-24T08:02:29;15.85;;;10.43;;
69789;SDS011;57064;52.046;4.800;2023-08-24T08:04:58;15.02;;;9.85;;
69789;SDS011;57064;52.046;4.800;2023-08-24T08:07:28;14.05;;;9.95;;
69789;SDS011;57064;52.046;4.800;2023-08-24T08:09:54;17.73;;;10.32;;
69789;SDS011;57064;52.046;4.800;2023-08-24T08:12:21;17.42;;;9.50;;
69789;SDS011;57064;52.046;4.800;2023-08-24T08:14:47;16.88;;;9.75;;
69789;SDS011;57064;52.046;4.800;2023-08-24T08:17:13;16.98;;;10.07;;
69789;SDS011;57064;52.046;4.800;2023-08-24T08:19:39;14.88;;;10.00;;
69789;SDS011;57064;52.046;4.800;2023-08-24T08:22:06;13.20;;;9.73;;
69789;SDS011;57064;52.046;4.800;2023-08-24T08:24:32;15.20;;;9.45;;
69789;SDS011;57064;52.046;4.800;2023-08-24T08:26:59;14.93;;;9.77;;
69789;SDS011;57064;52.046;4.800;2023-08-24T08:29:25;13.63;;;9.50;;
69789;SDS011;57064;52.046;4.800;2023-08-24T08:31:51;16.95;;;10.10;;
69789;SDS011;57064;52.046;4.800;2023-08-24T08:34:17;14.65;;;9.90;;
69789;SDS011;57064;52.046;4.800;2023-08-24T08:36:43;13.68;;;9.75;;
69789;SDS011;57064;52.046;4.800;2023-08-24T08:39:09;15.73;;;10.13;;
69789;SDS011;57064;52.046;4.800;2023-08-24T08:41:41;15.20;;;10.38;;
69789;SDS011;57064;52.046;4.800;2023-08-24T08:44:09;15.98;;;10.10;;
69789;SDS011;57064;52.046;4.800;2023-08-24T08:46:38;16.15;;;10.13;;
69789;SDS011;57064;52.046;4.800;2023-08-24T08:49:07;16.15;;;10.32;;
69789;SDS011;57064;52.046;4.800;2023-08-24T08:51:35;13.82;;;9.98;;
69789;SDS011;57064;52.046;4.800;2023-08-24T08:54:02;15.05;;;10.98;;
69789;SDS011;57064;52.046;4.800;2023-08-24T08:56:30;17.98;;;10.80;;
69789;SDS011;57064;52.046;4.800;2023-08-24T08:59:00;15.48;;;10.63;;
69789;SDS011;57064;52.046;4.800;2023-08-24T09:01:27;17.35;;;10.68;;
69789;SDS011;57064;52.046;4.800;2023-08-24T09:03:54;14.35;;;10.73;;
69789;SDS011;57064;52.046;4.800;2023-08-24T09:06:22;18.95;;;11.25;;
69789;SDS011;57064;52.046;4.800;2023-08-24T09:08:49;15.73;;;11.30;;
69789;SDS011;57064;52.046;4.800;2023-08-24T09:11:16;15.63;;;11.35;;
69789;SDS011;57064;52.046;4.800;2023-08-24T09:13:43;14.30;;;10.68;;
69789;SDS011;57064;52.046;4.800;2023-08-24T09:16:10;17.52;;;10.85;;
69789;SDS011;57064;52.046;4.800;2023-08-24T09:18:41;14.57;;;10.23;;
69789;SDS011;57064;52.046;4.800;2023-08-24T09:21:11;17.33;;;10.90;;
69789;SDS011;57064;52.046;4.800;2023-08-24T09:23:43;15.88;;;10.73;;
69789;SDS011;57064;52.046;4.800;2023-08-24T09:26:10;17.55;;;11.23;;
69789;SDS011;57064;52.046;4.800;2023-08-24T09:28:37;16.02;;;11.00;;
69789;SDS011;57064;52.046;4.800;2023-08-24T09:31:05;14.45;;;11.23;;
69789;SDS011;57064;52.046;4.800;2023-08-24T09:33:31;17.83;;;11.02;;
69789;SDS011;57064;52.046;4.800;2023-08-24T09:35:58;21.27;;;12.13;;
69789;SDS011;57064;52.046;4.800;2023-08-24T09:38:29;20.03;;;12.93;;
69789;SDS011;57064;52.046;4.800;2023-08-24T09:40:55;17.40;;;11.18;;
69789;SDS011;57064;52.046;4.800;2023-08-24T09:43:22;15.43;;;11.70;;
69789;SDS011;57064;52.046;4.800;2023-08-24T09:45:55;16.92;;;11.77;;
69789;SDS011;57064;52.046;4.800;2023-08-24T09:48:22;19.30;;;12.35;;
69789;SDS011;57064;52.046;4.800;2023-08-24T09:50:49;18.02;;;11.07;;
69789;SDS011;57064;52.046;4.800;2023-08-24T09:53:17;17.23;;;12.48;;
69789;SDS011;57064;52.046;4.800;2023-08-24T09:55:54;14.38;;;11.95;;
69789;SDS011;57064;52.046;4.800;2023-08-24T09:58:24;19.33;;;12.73;;
69789;SDS011;57064;52.046;4.800;2023-08-24T10:00:51;18.48;;;12.20;;
69789;SDS011;57064;52.046;4.800;2023-08-24T10:03:18;21.33;;;12.95;;
69789;SDS011;57064;52.046;4.800;2023-08-24T10:05:52;18.02;;;12.32;;
69789;SDS011;57064;52.046;4.800;2023-08-24T10:08:29;19.05;;;11.25;;
69789;SDS011;57064;52.046;4.800;2023-08-24T10:11:00;17.83;;;11.40;;
69789;SDS011;57064;52.046;4.800;2023-08-24T10:13:36;18.42;;;12.27;;
69789;SDS011;57064;52.046;4.800;2023-08-24T10:16:06;16.30;;;12.40;;
69789;SDS011;57064;52.046;4.800;2023-08-24T10:18:33;15.10;;;12.13;;
69789;SDS011;57064;52.046;4.800;2023-08-24T10:21:01;17.58;;;12.07;;
69789;SDS011;57064;52.046;4.800;2023-08-24T10:23:29;17.15;;;13.32;;
69789;SDS011;57064;52.046;4.800;2023-08-24T10:25:55;18.60;;;12.85;;
69789;SDS011;57064;52.046;4.800;2023-08-24T10:28:23;17.02;;;13.18;;
69789;SDS011;57064;52.046;4.800;2023-08-24T10:30:50;20.23;;;13.70;;
69789;SDS011;57064;52.046;4.800;2023-08-24T10:33:18;20.73;;;13.93;;
69789;SDS011;57064;52.046;4.800;2023-08-24T10:35:46;20.48;;;14.57;;
69789;SDS011;57064;52.046;4.800;2023-08-24T10:38:26;23.15;;;14.57;;
69789;SDS011;57064;52.046;4.800;2023-08-24T10:40:53;23.02;;;14.68;;
69789;SDS011;57064;52.046;4.800;2023-08-24T10:43:21;20.85;;;15.25;;
69789;SDS011;57064;52.046;4.800;2023-08-24T10:45:55;21.48;;;15.27;;
69789;SDS011;57064;52.046;4.800;2023-08-24T10:48:22;20.55;;;14.63;;
69789;SDS011;57064;52.046;4.800;2023-08-24T10:54:06;19.20;;;14.43;;
69789;SDS011;57064;52.046;4.800;2023-08-24T10:56:36;19.30;;;14.30;;
69789;SDS011;57064;52.046;4.800;2023-08-24T10:59:10;16.87;;;13.70;;
69789;SDS011;57064;52.046;4.800;2023-08-24T11:01:42;21.48;;;14.00;;
69789;SDS011;57064;52.046;4.800;2023-08-24T11:04:17;23.77;;;14.30;;
69789;SDS011;57064;52.046;4.800;2023-08-24T11:07:01;22.95;;;14.35;;
69789;SDS011;57064;52.046;4.800;2023-08-24T11:09:46;16.95;;;13.20;;
69789;SDS011;57064;52.046;4.800;2023-08-24T11:12:12;19.80;;;14.38;;
69789;SDS011;57064;52.046;4.800;2023-08-24T11:17:35;18.02;;;14.15;;
69789;SDS011;57064;52.046;4.800;2023-08-24T11:20:10;19.08;;;14.57;;
69789;SDS011;57064;52.046;4.800;2023-08-24T11:22:38;19.88;;;14.50;;
69789;SDS011;57064;52.046;4.800;2023-08-24T11:25:04;16.95;;;13.27;;
69789;SDS011;57064;52.046;4.800;2023-08-24T11:27:36;19.02;;;14.45;;
69789;SDS011;57064;52.046;4.800;2023-08-24T11:30:03;18.00;;;14.52;;
69789;SDS011;57064;52.046;4.800;2023-08-24T11:32:30;17.80;;;14.57;;
69789;SDS011;57064;52.046;4.800;2023-08-24T11:34:56;22.27;;;14.75;;
69789;SDS011;57064;52.046;4.800;2023-08-24T11:37:22;21.60;;;15.13;;
69789;SDS011;57064;52.046;4.800;2023-08-24T11:39:50;19.20;;;14.20;;
69789;SDS011;57064;52.046;4.800;2023-08-24T11:42:16;20.98;;;14.57;;
69789;SDS011;57064;52.046;4.800;2023-08-24T11:44:46;21.77;;;15.18;;
69789;SDS011;57064;52.046;4.800;2023-08-24T11:47:13;22.60;;;16.80;;
69789;SDS011;57064;52.046;4.800;2023-08-24T11:49:39;23.15;;;16.30;;
69789;SDS011;57064;52.046;4.800;2023-08-24T11:52:06;24.27;;;15.88;;
69789;SDS011;57064;52.046;4.800;2023-08-24T11:54:33;23.88;;;15.73;;
69789;SDS011;57064;52.046;4.800;2023-08-24T11:57:05;22.80;;;16.65;;
69789;SDS011;57064;52.046;4.800;2023-08-24T11:59:33;23.13;;;17.60;;
69789;SDS011;57064;52.046;4.800;2023-08-24T12:02:04;22.47;;;17.97;;
69789;SDS011;57064;52.046;4.800;2023-08-24T12:04:39;24.42;;;18.67;;
69789;SDS011;57064;52.046;4.800;2023-08-24T12:07:13;24.27;;;17.88;;
69789;SDS011;57064;52.046;4.800;2023-08-24T12:09:40;24.42;;;17.10;;
69789;SDS011;57064;52.046;4.800;2023-08-24T12:12:12;25.20;;;18.15;;
69789;SDS011;57064;52.046;4.800;2023-08-24T12:14:42;24.90;;;16.25;;
69789;SDS011;57064;52.046;4.800;2023-08-24T12:17:13;25.77;;;17.65;;
69789;SDS011;57064;52.046;4.800;2023-08-24T12:19:45;25.75;;;17.13;;
69789;SDS011;57064;52.046;4.800;2023-08-24T12:22:25;28.23;;;17.70;;
69789;SDS011;57064;52.046;4.800;2023-08-24T12:24:54;21.58;;;17.23;;
69789;SDS011;57064;52.046;4.800;2023-08-24T12:27:22;19.13;;;13.02;;
69789;SDS011;57064;52.046;4.800;2023-08-24T12:29:49;19.02;;;14.18;;
69789;SDS011;57064;52.046;4.800;2023-08-24T12:32:16;19.45;;;14.82;;
69789;SDS011;57064;52.046;4.800;2023-08-24T12:34:48;19.63;;;14.60;;
69789;SDS011;57064;52.046;4.800;2023-08-24T12:37:16;19.67;;;14.38;;
69789;SDS011;57064;52.046;4.800;2023-08-24T12:39:42;21.52;;;13.88;;
69789;SDS011;57064;52.046;4.800;2023-08-24T12:42:09;21.02;;;13.18;;
69789;SDS011;57064;52.046;4.800;2023-08-24T12:44:35;17.77;;;14.65;;
69789;SDS011;57064;52.046;4.800;2023-08-24T12:47:02;25.08;;;15.02;;
69789;SDS011;57064;52.046;4.800;2023-08-24T12:49:28;19.40;;;14.90;;
69789;SDS011;57064;52.046;4.800;2023-08-24T12:51:54;18.67;;;14.40;;
69789;SDS011;57064;52.046;4.800;2023-08-24T12:54:20;19.23;;;15.02;;
69789;SDS011;57064;52.046;4.800;2023-08-24T12:56:47;23.02;;;16.55;;
69789;SDS011;57064;52.046;4.800;2023-08-24T12:59:13;20.67;;;15.27;;
69789;SDS011;57064;52.046;4.800;2023-08-24T13:01:39;16.40;;;14.63;;
69789;SDS011;57064;52.046;4.800;2023-08-24T13:04:07;22.60;;;15.27;;
69789;SDS011;57064;52.046;4.800;2023-08-24T13:06:33;19.30;;;15.18;;
69789;SDS011;57064;52.046;4.800;2023-08-24T13:08:59;20.00;;;15.05;;
69789;SDS011;57064;52.046;4.800;2023-08-24T13:11:25;22.45;;;15.82;;
69789;SDS011;57064;52.046;4.800;2023-08-24T13:13:51;20.38;;;16.20;;
69789;SDS011;57064;52.046;4.800;2023-08-24T13:16:17;22.25;;;16.30;;
69789;SDS011;57064;52.046;4.800;2023-08-24T13:18:43;20.70;;;15.65;;
69789;SDS011;57064;52.046;4.800;2023-08-24T13:21:10;21.70;;;15.88;;
69789;SDS011;57064;52.046;4.800;2023-08-24T13:23:36;23.90;;;15.98;;
69789;SDS011;57064;52.046;4.800;2023-08-24T13:26:02;20.02;;;15.40;;
69789;SDS011;57064;52.046;4.800;2023-08-24T13:28:28;21.67;;;15.73;;
69789;SDS011;57064;52.046;4.800;2023-08-24T13:30:54;20.70;;;14.45;;
69789;SDS011;57064;52.046;4.800;2023-08-24T13:33:20;16.48;;;13.45;;
69789;SDS011;57064;52.046;4.800;2023-08-24T13:35:47;20.05;;;14.13;;
69789;SDS011;57064;52.046;4.800;2023-08-24T13:38:13;16.88;;;14.05;;
69789;SDS011;57064;52.046;4.800;2023-08-24T13:40:39;19.50;;;14.93;;
69789;SDS011;57064;52.046;4.800;2023-08-24T13:43:05;22.38;;;14.68;;
69789;SDS011;57064;52.046;4.800;2023-08-24T13:45:31;20.05;;;15.13;;
69789;SDS011;57064;52.046;4.800;2023-08-24T13:47:59;20.48;;;14.95;;
69789;SDS011;57064;52.046;4.800;2023-08-24T13:50:25;25.02;;;15.20;;
69789;SDS011;57064;52.046;4.800;2023-08-24T13:52:51;18.88;;;14.52;;
69789;SDS011;57064;52.046;4.800;2023-08-24T13:55:17;20.70;;;15.52;;
69789;SDS011;57064;52.046;4.800;2023-08-24T13:57:43;22.63;;;15.52;;
69789;SDS011;57064;52.046;4.800;2023-08-24T14:00:10;21.80;;;16.55;;
69789;SDS011;57064;52.046;4.800;2023-08-24T14:02:36;21.20;;;14.43;;
69789;SDS011;57064;52.046;4.800;2023-08-24T14:05:02;18.83;;;14.15;;
69789;SDS011;57064;52.046;4.800;2023-08-24T14:07:31;19.20;;;14.23;;
69789;SDS011;57064;52.046;4.800;2023-08-24T14:09:57;21.65;;;14.95;;
69789;SDS011;57064;52.046;4.800;2023-08-24T14:12:23;20.65;;;14.68;;
69789;SDS011;57064;52.046;4.800;2023-08-24T14:14:49;21.33;;;14.68;;
69789;SDS011;57064;52.046;4.800;2023-08-24T14:17:15;22.27;;;14.45;;
69789;SDS011;57064;52.046;4.800;2023-08-24T14:19:43;18.75;;;14.48;;
69789;SDS011;57064;52.046;4.800;2023-08-24T14:22:09;21.60;;;15.45;;
69789;SDS011;57064;52.046;4.800;2023-08-24T14:24:35;22.55;;;15.77;;
69789;SDS011;57064;52.046;4.800;2023-08-24T14:27:01;20.27;;;15.70;;
69789;SDS011;57064;52.046;4.800;2023-08-24T14:29:27;21.83;;;14.20;;
69789;SDS011;57064;52.046;4.800;2023-08-24T14:31:53;20.08;;;14.93;;
69789;SDS011;57064;52.046;4.800;2023-08-24T14:34:20;20.67;;;15.23;;
69789;SDS011;57064;52.046;4.800;2023-08-24T14:36:46;22.13;;;14.82;;